createdAt,value
2023-08-15T00:03:08.551Z,10.10
2023-08-15T00:08:11.436Z,10.90
2023-08-15T00:13:14.201Z,10.30
2023-08-15T00:18:16.985Z,10.60
2023-08-15T00:23:21.474Z,9.40
2023-08-15T00:28:24.244Z,9.80
2023-08-15T00:33:27.094Z,9.50
2023-08-15T00:38:29.862Z,9.10
2023-08-15T00:43:32.664Z,9.80
2023-08-15T00:48:37.243Z,10.50
2023-08-15T00:53:40.755Z,10.20
2023-08-15T00:58:43.611Z,10.00
2023-08-15T01:03:48.049Z,9.60
2023-08-15T01:08:50.973Z,10.10
2023-08-15T01:14:06.206Z,10.80
2023-08-15T01:19:14.574Z,10.20
2023-08-15T01:24:17.869Z,10.50
2023-08-15T01:29:20.630Z,9.70
2023-08-15T01:34:34.096Z,11.00
2023-08-15T01:39:39.624Z,11.20
2023-08-15T01:44:42.375Z,11.60
2023-08-15T01:49:45.214Z,11.50
2023-08-15T01:54:48.343Z,10.70
2023-08-15T01:59:51.132Z,10.50
2023-08-15T02:04:53.913Z,11.80
2023-08-15T02:09:56.684Z,11.10
2023-08-15T02:14:59.455Z,11.10
2023-08-15T02:20:02.441Z,10.70
2023-08-15T02:25:05.942Z,11.20
2023-08-15T02:30:09.654Z,10.70
2023-08-15T02:35:14.396Z,12.00
2023-08-15T02:40:17.321Z,11.30
2023-08-15T02:45:20.127Z,11.30
2023-08-15T02:50:23.213Z,11.10
2023-08-15T02:55:26.150Z,11.60
2023-08-15T03:00:28.883Z,12.30
2023-08-15T03:05:31.620Z,13.20
2023-08-15T03:10:36.520Z,10.60
2023-08-15T03:15:39.822Z,10.70
2023-08-15T03:20:42.684Z,11.70
2023-08-15T03:25:45.411Z,11.20
2023-08-15T03:30:48.310Z,11.90
2023-08-15T03:35:52.656Z,11.00
2023-08-15T03:41:06.544Z,10.80
2023-08-15T03:46:09.458Z,13.00
2023-08-15T03:51:15.605Z,11.00
2023-08-15T03:56:25.939Z,11.10
2023-08-15T04:01:28.849Z,11.30
2023-08-15T04:06:31.667Z,10.90
2023-08-15T04:11:34.424Z,11.50
2023-08-15T04:16:37.388Z,11.90
2023-08-15T04:21:40.261Z,11.40
2023-08-15T04:26:43.010Z,15.00
2023-08-15T04:31:45.887Z,10.80
2023-08-15T04:36:49.978Z,11.70
2023-08-15T04:41:52.851Z,11.50
2023-08-15T04:46:55.999Z,12.70
2023-08-15T04:51:58.778Z,12.10
2023-08-15T04:57:01.565Z,10.40
2023-08-15T05:02:04.619Z,12.00
2023-08-15T05:07:07.693Z,11.70
2023-08-15T05:12:10.436Z,10.60
2023-08-15T05:17:13.368Z,10.80
2023-08-15T05:22:16.506Z,10.80
2023-08-15T05:27:19.800Z,10.80
2023-08-15T05:32:22.973Z,14.10
2023-08-15T05:37:25.952Z,10.60
2023-08-15T05:42:28.732Z,9.60
2023-08-15T05:47:31.688Z,9.80
2023-08-15T05:52:35.081Z,9.30
2023-08-15T05:57:37.853Z,10.30
2023-08-15T06:02:41.109Z,10.60
2023-08-15T06:07:44.785Z,10.80
2023-08-15T06:12:47.752Z,10.30
2023-08-15T06:17:50.549Z,9.50
2023-08-15T06:22:53.465Z,8.50
2023-08-15T06:27:56.216Z,9.60
2023-08-15T06:32:59.620Z,8.50
2023-08-15T06:38:02.454Z,10.10
2023-08-15T06:43:05.224Z,8.60
2023-08-15T06:48:08.069Z,11.00
2023-08-15T06:53:10.849Z,7.60
2023-08-15T06:58:13.596Z,8.30
2023-08-15T07:03:17.556Z,10.00
2023-08-15T07:08:20.369Z,7.00
2023-08-15T07:13:23.304Z,6.80
2023-08-15T07:18:26.231Z,6.90
2023-08-15T07:23:29.040Z,9.00
2023-08-15T07:28:31.749Z,6.40
2023-08-15T07:33:34.609Z,9.00
2023-08-15T07:38:37.411Z,6.50
2023-08-15T07:43:40.176Z,7.80
2023-08-15T07:48:44.142Z,5.50
2023-08-15T07:53:47.495Z,5.60
2023-08-15T07:58:50.261Z,9.40
2023-08-15T08:03:53.304Z,6.30
2023-08-15T08:08:56.143Z,9.40
2023-08-15T08:13:59.414Z,5.40
2023-08-15T08:19:02.844Z,7.10
2023-08-15T08:24:06.760Z,7.50
2023-08-15T08:29:12.642Z,6.50
2023-08-15T08:34:17.478Z,6.40
2023-08-15T08:39:31.613Z,5.40
2023-08-15T08:49:44.934Z,5.80
2023-08-15T08:54:57.096Z,5.90
2023-08-15T09:00:10.901Z,7.30
2023-08-15T09:05:14.631Z,6.40
2023-08-15T09:10:17.800Z,5.90
2023-08-15T09:15:20.609Z,7.00
2023-08-15T09:20:23.438Z,5.60
2023-08-15T09:25:28.591Z,5.60
2023-08-15T09:30:32.207Z,8.30
2023-08-15T09:35:37.488Z,5.70
2023-08-15T09:40:45.161Z,8.40
2023-08-15T09:45:48.198Z,8.20
2023-08-15T09:50:51.915Z,6.70
2023-08-15T09:55:55.071Z,7.00
2023-08-15T10:00:59.654Z,3.90
2023-08-15T10:06:04.257Z,5.30
2023-08-15T10:11:10.452Z,6.50
2023-08-15T10:16:15.214Z,5.40
2023-08-15T10:21:19.417Z,5.60
2023-08-15T10:26:22.403Z,6.40
2023-08-15T10:31:41.211Z,6.20
2023-08-15T10:36:46.573Z,5.20
2023-08-15T10:41:50.350Z,5.30
2023-08-15T10:46:57.604Z,7.30
2023-08-15T10:52:01.439Z,5.20
2023-08-15T10:57:10.996Z,3.90
2023-08-15T11:02:16.342Z,8.20
2023-08-15T11:07:27.319Z,7.30
2023-08-15T11:12:33.165Z,6.40
2023-08-15T11:17:37.513Z,6.80
2023-08-15T11:22:41.751Z,6.00
2023-08-15T11:27:53.024Z,5.00
2023-08-15T11:33:01.809Z,4.80
2023-08-15T11:38:11.428Z,4.50
2023-08-15T11:43:15.516Z,5.50
2023-08-15T11:48:19.441Z,6.20
2023-08-15T11:53:27.291Z,8.30
2023-08-15T11:58:33.021Z,5.00
2023-08-15T12:03:40.273Z,4.00
2023-08-15T12:08:47.293Z,6.00
2023-08-15T12:13:50.624Z,5.20
2023-08-15T12:18:53.556Z,6.70
2023-08-15T12:23:57.453Z,7.30
2023-08-15T12:29:01.407Z,7.80
2023-08-15T12:34:06.419Z,4.80
2023-08-15T12:39:10.674Z,5.10
2023-08-15T12:44:13.990Z,6.30
2023-08-15T12:49:18.125Z,6.70
2023-08-15T12:54:21.716Z,5.00
2023-08-15T12:59:35.465Z,6.00
2023-08-15T13:04:38.998Z,6.60
2023-08-15T13:09:54.877Z,9.20
2023-08-15T13:14:57.958Z,6.80
2023-08-15T13:20:04.144Z,6.20
2023-08-15T13:25:08.940Z,5.70
2023-08-15T13:30:14.093Z,7.40
2023-08-15T13:35:21.444Z,4.40
2023-08-15T13:40:24.932Z,6.40
2023-08-15T13:45:29.324Z,7.00
2023-08-15T13:50:32.196Z,5.10
2023-08-15T13:55:35.617Z,6.40
2023-08-15T14:00:40.269Z,5.40
2023-08-15T14:05:43.210Z,4.70
2023-08-15T14:10:46.336Z,5.50
2023-08-15T14:15:50.976Z,6.20
2023-08-15T14:20:53.835Z,6.40
2023-08-15T14:25:58.290Z,4.50
2023-08-15T14:31:06.882Z,4.50
2023-08-15T14:36:10.965Z,5.50
2023-08-15T14:41:13.838Z,5.50
2023-08-15T14:46:18.873Z,4.90
2023-08-15T14:51:22.469Z,5.50
2023-08-15T15:01:31.896Z,4.50
2023-08-15T15:06:36.722Z,5.20
2023-08-15T15:11:40.286Z,5.60
2023-08-15T15:16:44.816Z,4.40
2023-08-15T15:21:53.759Z,3.90
2023-08-15T15:26:59.647Z,4.70
2023-08-15T15:32:06.298Z,4.80
2023-08-15T15:37:13.322Z,4.60
2023-08-15T15:42:16.529Z,4.10
2023-08-15T15:47:20.770Z,5.20
2023-08-15T15:57:28.188Z,4.50
2023-08-15T16:02:31.172Z,5.40
2023-08-15T16:07:34.071Z,6.70
2023-08-15T16:12:36.888Z,5.60
2023-08-15T16:17:39.896Z,5.50
2023-08-15T16:22:43.643Z,5.60
2023-08-15T16:32:49.672Z,4.60
2023-08-15T16:37:52.833Z,8.30
2023-08-15T16:43:11.453Z,5.50
2023-08-15T16:48:15.389Z,4.20
2023-08-15T16:53:18.878Z,6.20
2023-08-15T16:58:24.783Z,5.70
2023-08-15T17:03:28.505Z,6.80
2023-08-15T17:08:32.430Z,9.00
2023-08-15T17:13:35.442Z,7.10
2023-08-15T17:18:38.472Z,4.70
2023-08-15T17:23:41.212Z,7.70
2023-08-15T17:28:44.492Z,6.00
2023-08-15T17:33:47.336Z,9.00
2023-08-15T17:38:50.084Z,9.00
2023-08-15T17:43:55.265Z,9.70
2023-08-15T17:48:58.081Z,9.60
2023-08-15T17:54:00.847Z,8.50
2023-08-15T17:59:04.243Z,7.00
2023-08-15T18:04:07.165Z,8.20
2023-08-15T18:09:10.767Z,5.90
2023-08-15T18:14:14.739Z,10.10
2023-08-15T18:19:21.267Z,8.70
2023-08-15T18:24:24.206Z,8.90
2023-08-15T18:29:28.054Z,9.00
2023-08-15T18:34:30.856Z,5.90
2023-08-15T18:39:33.796Z,7.10
2023-08-15T18:44:36.710Z,9.60
2023-08-15T18:49:39.748Z,7.80
2023-08-15T18:54:42.832Z,7.90
2023-08-15T18:59:45.713Z,6.70
2023-08-15T19:04:48.701Z,9.40
2023-08-15T19:09:51.574Z,5.90
2023-08-15T19:14:57.012Z,8.10
2023-08-15T19:20:00.047Z,9.00
2023-08-15T19:25:03.321Z,8.30
2023-08-15T19:30:07.331Z,6.40
2023-08-15T19:35:10.263Z,8.20
2023-08-15T19:40:13.347Z,8.70
2023-08-15T19:45:16.306Z,6.60
2023-08-15T19:50:19.191Z,6.40
2023-08-15T19:55:22.134Z,8.10
2023-08-15T20:00:25.542Z,5.40
2023-08-15T20:05:28.457Z,6.70
2023-08-15T20:10:35.669Z,5.90
2023-08-15T20:15:40.094Z,6.90
2023-08-15T20:20:43.143Z,6.00
2023-08-15T20:25:46.739Z,7.20
2023-08-15T20:30:49.960Z,8.00
2023-08-15T20:35:54.050Z,6.80
2023-08-15T20:40:59.204Z,8.30
2023-08-15T20:46:02.197Z,8.20
2023-08-15T20:51:05.771Z,15.10
2023-08-15T20:56:08.762Z,7.20
2023-08-15T21:01:14.597Z,6.70
2023-08-15T21:06:17.491Z,7.60
2023-08-15T21:11:21.037Z,8.50
2023-08-15T21:16:30.951Z,9.00
2023-08-15T21:21:44.879Z,6.90
2023-08-15T21:26:50.863Z,7.10
2023-08-15T21:31:54.659Z,7.90
2023-08-15T21:36:58.732Z,6.70
2023-08-15T21:42:15.385Z,5.70
2023-08-15T21:47:21.487Z,8.40
2023-08-15T21:52:25.049Z,6.50
2023-08-15T21:57:28.476Z,5.90
2023-08-15T22:02:32.020Z,7.30
2023-08-15T22:07:35.393Z,8.30
2023-08-15T22:12:38.222Z,6.40
2023-08-15T22:17:46.159Z,6.80
2023-08-15T22:22:50.644Z,7.50
2023-08-15T22:27:53.409Z,6.70
2023-08-15T22:32:56.170Z,6.50
2023-08-15T22:37:58.975Z,6.20
2023-08-15T22:43:01.960Z,8.20
2023-08-15T22:48:05.075Z,6.50
2023-08-15T22:53:07.900Z,6.60
2023-08-15T22:58:14.866Z,6.40
2023-08-15T23:03:17.689Z,6.70
2023-08-15T23:08:20.497Z,7.20
2023-08-15T23:13:23.472Z,7.60
2023-08-15T23:18:26.591Z,10.40
2023-08-15T23:23:29.668Z,6.90
2023-08-15T23:28:32.433Z,7.70
2023-08-15T23:33:35.252Z,8.30
2023-08-15T23:38:38.151Z,9.70
2023-08-15T23:43:41.340Z,8.00
2023-08-15T23:48:44.119Z,6.90
2023-08-15T23:53:48.761Z,6.70
2023-08-15T23:58:52.126Z,12.00
